createdAt,value
2019-05-20T00:01:10.874Z,53.25
2019-05-20T00:03:40.447Z,44.30
2019-05-20T00:06:10.388Z,55.52
2019-05-20T00:08:40.197Z,49.03
2019-05-20T00:11:09.956Z,58.95
2019-05-20T00:13:39.893Z,52.55
2019-05-20T00:16:09.669Z,56.23
2019-05-20T00:18:39.720Z,51.28
2019-05-20T00:21:09.891Z,51.63
2019-05-20T00:23:39.741Z,49.35
2019-05-20T00:26:09.600Z,55.48
2019-05-20T00:28:39.401Z,53.38
2019-05-20T00:31:09.296Z,58.83
2019-05-20T00:33:39.100Z,63.25
2019-05-20T00:36:08.750Z,51.50
2019-05-20T00:38:38.685Z,54.83
2019-05-20T00:41:08.425Z,55.33
2019-05-20T00:43:38.043Z,55.60
2019-05-20T00:46:07.679Z,53.00
2019-05-20T00:48:37.382Z,54.03
2019-05-20T00:51:07.219Z,56.35
2019-05-20T00:53:36.947Z,61.45
2019-05-20T00:56:06.560Z,61.50
2019-05-20T00:58:36.374Z,60.90
2019-05-20T01:01:06.239Z,60.65
2019-05-20T01:03:36.005Z,64.70
2019-05-20T01:06:05.718Z,64.45
2019-05-20T01:08:35.394Z,62.65
2019-05-20T01:11:05.269Z,61.08
2019-05-20T01:13:35.078Z,63.42
2019-05-20T01:16:04.757Z,62.20
2019-05-20T01:18:34.338Z,62.45
2019-05-20T01:21:04.396Z,61.70
2019-05-20T01:23:34.266Z,64.27
2019-05-20T01:26:04.270Z,62.62
2019-05-20T01:28:33.915Z,62.80
2019-05-20T01:31:03.739Z,59.95
2019-05-20T01:33:33.496Z,60.52
2019-05-20T01:36:03.367Z,58.60
2019-05-20T01:38:33.192Z,60.43
2019-05-20T01:41:02.806Z,60.10
2019-05-20T01:43:32.620Z,63.95
2019-05-20T01:46:02.297Z,60.92
2019-05-20T01:48:32.137Z,62.23
2019-05-20T01:51:01.686Z,59.45
2019-05-20T01:53:31.354Z,58.55
2019-05-20T01:56:01.293Z,63.00
2019-05-20T01:58:31.031Z,63.08
2019-05-20T02:01:00.785Z,60.48
2019-05-20T02:03:32.297Z,65.50
2019-05-20T02:06:02.879Z,61.80
2019-05-20T02:08:32.528Z,59.35
2019-05-20T02:11:02.288Z,60.35
2019-05-20T02:13:50.078Z,63.13
2019-05-20T02:16:21.217Z,63.20
2019-05-20T02:18:51.183Z,65.83
2019-05-20T02:21:20.805Z,64.35
2019-05-20T02:23:50.559Z,71.72
2019-05-20T02:26:20.453Z,61.63
2019-05-20T02:28:50.234Z,57.83
2019-05-20T02:31:20.145Z,56.70
2019-05-20T02:33:52.713Z,58.52
2019-05-20T02:36:21.383Z,60.30
2019-05-20T02:38:51.155Z,57.75
2019-05-20T02:41:21.140Z,56.75
2019-05-20T02:43:50.805Z,61.90
2019-05-20T02:46:20.589Z,64.80
2019-05-20T02:48:50.335Z,63.23
2019-05-20T02:51:21.741Z,63.73
2019-05-20T02:53:51.403Z,61.13
2019-05-20T02:56:21.191Z,61.33
2019-05-20T02:58:51.037Z,61.73
2019-05-20T03:01:22.141Z,59.15
2019-05-20T03:04:10.049Z,62.90
2019-05-20T03:06:23.908Z,58.65
2019-05-20T03:08:53.624Z,60.48
2019-05-20T03:11:23.355Z,60.08
2019-05-20T03:13:53.222Z,65.55
2019-05-20T03:16:22.963Z,60.20
2019-05-20T03:18:52.764Z,54.83
2019-05-20T03:21:22.382Z,55.28
2019-05-20T03:23:52.263Z,54.45
2019-05-20T03:26:22.186Z,55.70
2019-05-20T03:28:52.355Z,56.00
2019-05-20T03:31:22.180Z,55.55
2019-05-20T03:33:52.657Z,58.30
2019-05-20T03:36:23.101Z,55.03
2019-05-20T03:38:54.065Z,59.35
2019-05-20T03:41:24.701Z,53.58
2019-05-20T03:43:55.332Z,53.52
2019-05-20T03:46:26.244Z,53.58
2019-05-20T03:48:56.698Z,50.95
2019-05-20T03:51:27.614Z,55.28
2019-05-20T03:53:58.079Z,55.65
2019-05-20T03:56:28.720Z,52.08
2019-05-20T03:58:59.073Z,49.83
2019-05-20T04:01:29.820Z,53.70
2019-05-20T04:04:00.444Z,52.80
2019-05-20T04:06:30.966Z,54.70
2019-05-20T04:09:02.150Z,51.85
2019-05-20T04:11:32.768Z,51.23
2019-05-20T04:14:03.602Z,51.53
2019-05-20T04:16:34.104Z,52.48
2019-05-20T04:19:05.048Z,54.15
2019-05-20T04:21:35.862Z,53.68
2019-05-20T04:24:06.792Z,52.95
2019-05-20T04:26:37.916Z,49.90
2019-05-20T04:29:08.704Z,52.73
2019-05-20T04:31:39.320Z,50.12
2019-05-20T04:34:09.769Z,51.73
2019-05-20T04:36:40.354Z,51.77
2019-05-20T04:39:10.970Z,49.13
2019-05-20T04:41:41.626Z,51.02
2019-05-20T04:44:12.230Z,52.20
2019-05-20T04:46:42.432Z,50.05
2019-05-20T04:49:13.290Z,48.17
2019-05-20T04:51:44.160Z,51.88
2019-05-20T04:54:15.016Z,45.67
2019-05-20T04:56:45.681Z,46.90
2019-05-20T04:59:16.290Z,45.58
2019-05-20T05:01:47.131Z,48.33
2019-05-20T05:04:17.783Z,50.12
2019-05-20T05:06:48.493Z,48.75
2019-05-20T05:09:19.303Z,49.55
2019-05-20T05:11:50.188Z,48.92
2019-05-20T05:14:21.054Z,46.98
2019-05-20T05:16:51.237Z,49.30
2019-05-20T05:19:22.289Z,43.80
2019-05-20T05:21:52.585Z,45.40
2019-05-20T05:24:23.131Z,44.13
2019-05-20T05:26:53.896Z,46.58
2019-05-20T05:29:24.805Z,46.25
2019-05-20T05:31:55.215Z,46.60
2019-05-20T05:34:25.570Z,46.18
2019-05-20T05:36:55.878Z,45.45
2019-05-20T05:39:25.878Z,46.98
2019-05-20T05:41:56.053Z,45.78
2019-05-20T05:44:26.424Z,47.15
2019-05-20T05:46:57.367Z,48.73
2019-05-20T05:49:28.267Z,47.93
2019-05-20T05:51:58.817Z,46.83
2019-05-20T05:54:29.341Z,48.68
2019-05-20T05:56:59.943Z,45.48
2019-05-20T05:59:30.393Z,45.25
2019-05-20T06:02:01.151Z,50.17
2019-05-20T06:04:32.266Z,51.45
2019-05-20T06:07:02.726Z,47.60
2019-05-20T06:09:33.343Z,51.13
2019-05-20T06:12:04.100Z,48.28
2019-05-20T06:14:34.834Z,52.05
2019-05-20T06:17:05.305Z,52.62
2019-05-20T06:19:35.462Z,49.73
2019-05-20T06:22:05.946Z,49.00
2019-05-20T06:24:36.473Z,54.08
2019-05-20T06:27:06.755Z,49.58
2019-05-20T06:29:37.093Z,51.92
2019-05-20T06:32:07.781Z,51.13
2019-05-20T06:34:38.263Z,49.85
2019-05-20T06:37:10.783Z,53.65
2019-05-20T06:39:41.308Z,54.13
2019-05-20T06:42:12.146Z,54.45
2019-05-20T06:44:52.081Z,51.63
2019-05-20T06:47:15.497Z,53.63
2019-05-20T06:49:46.320Z,52.33
2019-05-20T06:52:17.164Z,51.10
2019-05-20T06:54:47.736Z,56.08
2019-05-20T06:57:18.553Z,51.65
2019-05-20T06:59:49.500Z,55.63
2019-05-20T07:02:20.378Z,50.78
2019-05-20T07:04:51.505Z,52.83
2019-05-20T07:07:22.162Z,49.50
2019-05-20T07:09:52.556Z,44.93
2019-05-20T07:12:38.545Z,43.20
2019-05-20T07:14:55.821Z,46.92
2019-05-20T07:17:26.360Z,46.65
2019-05-20T07:19:57.188Z,44.33
2019-05-20T07:22:28.077Z,45.20
2019-05-20T07:24:58.680Z,48.48
2019-05-20T07:27:29.232Z,51.35
2019-05-20T07:30:00.427Z,46.15
2019-05-20T07:32:30.621Z,45.08
2019-05-20T07:35:01.203Z,43.15
2019-05-20T07:37:31.478Z,44.60
2019-05-20T07:40:02.447Z,47.38
2019-05-20T07:42:33.529Z,47.53
2019-05-20T07:45:04.253Z,49.58
2019-05-20T07:47:34.643Z,47.62
2019-05-20T07:50:09.553Z,40.78
2019-05-20T07:52:40.845Z,45.05
2019-05-20T07:55:11.958Z,42.73
2019-05-20T07:57:44.595Z,50.58
2019-05-20T08:00:15.791Z,42.33
2019-05-20T08:02:46.332Z,42.65
2019-05-20T08:05:18.590Z,44.13
2019-05-20T08:07:52.431Z,38.63
2019-05-20T08:10:21.567Z,41.95
2019-05-20T08:12:52.440Z,41.00
2019-05-20T08:15:23.195Z,46.53
2019-05-20T08:17:54.229Z,40.78
2019-05-20T08:20:25.490Z,42.45
2019-05-20T08:22:56.523Z,37.90
2019-05-20T08:25:27.229Z,35.92
2019-05-20T08:27:57.569Z,35.73
2019-05-20T08:30:39.781Z,34.15
2019-05-20T08:33:10.513Z,28.52
2019-05-20T08:35:40.871Z,28.70
2019-05-20T08:38:11.571Z,31.97
2019-05-20T08:40:43.571Z,32.83
2019-05-20T08:43:14.396Z,33.00
2019-05-20T08:45:45.037Z,35.73
2019-05-20T08:48:15.490Z,33.83
2019-05-20T08:50:46.199Z,36.63
2019-05-20T08:53:16.726Z,34.80
2019-05-20T08:55:48.429Z,38.58
2019-05-20T08:58:19.057Z,34.38
2019-05-20T09:00:51.821Z,32.93
2019-05-20T09:03:22.528Z,30.27
2019-05-20T09:05:53.185Z,32.55
2019-05-20T09:08:23.927Z,28.85
2019-05-20T09:10:55.872Z,29.63
2019-05-20T09:13:26.805Z,25.60
2019-05-20T09:15:58.476Z,21.73
2019-05-20T09:18:30.316Z,22.95
2019-05-20T09:21:01.107Z,25.37
2019-05-20T09:23:31.751Z,23.85
2019-05-20T09:26:02.844Z,22.67
2019-05-20T09:28:33.499Z,23.70
2019-05-20T09:31:04.162Z,20.68
2019-05-20T09:33:35.548Z,17.02
2019-05-20T09:36:06.726Z,21.33
2019-05-20T09:38:38.738Z,17.48
2019-05-20T09:41:10.093Z,16.77
2019-05-20T09:43:40.752Z,17.50
2019-05-20T09:46:11.277Z,16.32
2019-05-20T09:48:41.686Z,17.32
2019-05-20T09:51:12.542Z,15.43
2019-05-20T09:53:43.638Z,15.43
2019-05-20T09:56:14.709Z,15.85
2019-05-20T09:58:45.479Z,14.80
2019-05-20T10:01:16.213Z,15.30
2019-05-20T10:03:49.337Z,15.48
2019-05-20T10:06:19.788Z,12.73
2019-05-20T10:08:50.367Z,12.47
2019-05-20T10:11:21.093Z,12.75
2019-05-20T10:13:51.522Z,12.60
2019-05-20T10:16:22.481Z,12.13
2019-05-20T10:18:55.410Z,11.60
2019-05-20T10:21:25.843Z,11.78
2019-05-20T10:23:57.934Z,10.58
2019-05-20T10:26:29.617Z,10.03
2019-05-20T10:29:02.169Z,9.60
2019-05-20T10:31:33.852Z,10.03
2019-05-20T10:34:05.900Z,9.08
2019-05-20T10:36:36.507Z,9.00
2019-05-20T10:39:08.831Z,9.45
2019-05-20T10:41:39.134Z,10.70
2019-05-20T10:44:09.655Z,8.93
2019-05-20T10:46:39.958Z,9.45
2019-05-20T10:49:10.549Z,7.35
2019-05-20T10:51:42.346Z,9.55
2019-05-20T10:54:13.003Z,7.62
2019-05-20T10:56:44.807Z,7.40
2019-05-20T10:59:15.076Z,8.08
2019-05-20T11:01:46.262Z,7.53
2019-05-20T11:04:17.054Z,8.95
2019-05-20T11:06:47.589Z,8.13
2019-05-20T11:09:18.301Z,8.28
2019-05-20T11:11:49.146Z,7.40
2019-05-20T11:14:19.996Z,7.10
2019-05-20T11:16:50.863Z,7.97
2019-05-20T11:19:22.541Z,8.68
2019-05-20T11:21:52.961Z,7.90
2019-05-20T11:24:23.885Z,7.85
2019-05-20T11:26:54.491Z,8.30
2019-05-20T11:29:24.974Z,8.15
2019-05-20T11:31:55.217Z,9.30
2019-05-20T11:34:29.088Z,7.12
2019-05-20T11:36:59.320Z,8.23
2019-05-20T11:39:33.771Z,7.67
2019-05-20T11:42:02.127Z,7.67
2019-05-20T11:44:32.404Z,8.20
2019-05-20T11:47:03.452Z,8.85
2019-05-20T11:49:33.926Z,8.10
2019-05-20T11:52:05.076Z,7.80
2019-05-20T11:54:36.693Z,8.13
2019-05-20T11:57:08.085Z,7.83
2019-05-20T11:59:38.289Z,7.53
2019-05-20T12:02:08.919Z,7.97
2019-05-20T12:04:39.430Z,9.83
2019-05-20T12:07:09.696Z,8.13
2019-05-20T12:09:49.777Z,7.50
2019-05-20T12:12:12.437Z,8.35
2019-05-20T12:14:43.426Z,7.17
2019-05-20T12:17:14.485Z,7.75
2019-05-20T12:19:45.428Z,7.53
2019-05-20T12:22:16.126Z,6.83
2019-05-20T12:24:47.318Z,6.90
2019-05-20T12:27:17.747Z,6.90
2019-05-20T12:29:48.340Z,5.85
2019-05-20T12:32:18.970Z,6.80
2019-05-20T12:34:51.048Z,7.15
2019-05-20T12:37:21.474Z,6.78
2019-05-20T12:40:05.765Z,7.12
2019-05-20T12:42:24.426Z,6.45
2019-05-20T12:44:54.915Z,6.33
2019-05-20T12:47:25.709Z,6.00
2019-05-20T12:49:55.837Z,6.47
2019-05-20T12:52:26.550Z,5.90
2019-05-20T12:55:07.803Z,5.97
2019-05-20T12:57:29.742Z,5.55
2019-05-20T13:00:00.137Z,6.00
2019-05-20T13:02:30.718Z,5.85
2019-05-20T13:05:01.579Z,5.75
2019-05-20T13:07:32.253Z,5.72
2019-05-20T13:10:03.563Z,5.90
2019-05-20T13:12:34.107Z,5.72
2019-05-20T13:15:07.468Z,6.40
2019-05-20T13:17:43.384Z,5.35
2019-05-20T13:20:11.390Z,5.30
2019-05-20T13:22:41.282Z,4.67
2019-05-20T13:25:12.866Z,5.62
2019-05-20T13:27:43.293Z,5.78
2019-05-20T13:30:13.989Z,5.70
2019-05-20T13:32:44.244Z,5.22
2019-05-20T13:35:14.688Z,5.65
2019-05-20T13:37:44.925Z,5.65
2019-05-20T13:40:15.589Z,4.78
2019-05-20T13:42:46.056Z,5.72
2019-05-20T13:45:16.488Z,5.25
2019-05-20T13:47:46.871Z,5.87
2019-05-20T13:50:17.695Z,6.20
2019-05-20T13:52:48.209Z,5.83
2019-05-20T13:55:18.732Z,11.78
2019-05-20T13:57:48.990Z,5.90
2019-05-20T14:00:19.727Z,6.50
2019-05-20T14:02:50.078Z,9.95
2019-05-20T14:05:20.305Z,5.92
2019-05-20T14:07:52.208Z,6.03
2019-05-20T14:10:22.482Z,6.20
2019-05-20T14:12:54.141Z,6.33
2019-05-20T14:15:25.745Z,6.90
2019-05-20T14:17:55.869Z,6.40
2019-05-20T14:20:26.460Z,7.92
2019-05-20T14:22:57.549Z,7.55
2019-05-20T14:25:29.208Z,7.75
2019-05-20T14:27:59.781Z,6.85
2019-05-20T14:30:30.141Z,7.60
2019-05-20T14:33:00.403Z,7.78
2019-05-20T14:35:31.595Z,6.97
2019-05-20T14:38:01.957Z,7.65
2019-05-20T14:40:34.483Z,7.78
2019-05-20T14:43:04.832Z,7.90
2019-05-20T14:45:35.437Z,8.58
2019-05-20T14:48:05.818Z,7.55
2019-05-20T14:50:36.676Z,8.48
2019-05-20T14:53:06.847Z,9.30
2019-05-20T14:55:42.164Z,8.93
2019-05-20T14:58:08.785Z,7.42
2019-05-20T15:00:39.227Z,7.62
2019-05-20T15:03:09.720Z,7.28
2019-05-20T15:05:40.643Z,8.90
2019-05-20T15:08:11.046Z,11.12
2019-05-20T15:10:41.246Z,9.80
2019-05-20T15:13:11.646Z,11.95
2019-05-20T15:15:42.006Z,11.22
2019-05-20T15:18:12.375Z,11.73
2019-05-20T15:20:42.764Z,12.40
2019-05-20T15:23:13.032Z,13.15
2019-05-20T15:25:43.463Z,12.65
2019-05-20T15:28:13.603Z,13.15
2019-05-20T15:30:43.893Z,13.83
2019-05-20T15:33:14.292Z,16.82
2019-05-20T15:35:44.632Z,16.95
2019-05-20T15:38:14.823Z,15.85
2019-05-20T15:40:45.044Z,16.90
2019-05-20T15:43:15.258Z,15.30
2019-05-20T15:45:45.677Z,18.30
2019-05-20T15:48:16.081Z,20.52
2019-05-20T15:50:46.450Z,17.75
2019-05-20T15:53:16.780Z,16.17
2019-05-20T15:55:46.922Z,16.93
2019-05-20T15:58:17.459Z,19.02
2019-05-20T16:00:48.295Z,16.80
2019-05-20T16:03:18.677Z,17.55
2019-05-20T16:05:48.941Z,17.23
2019-05-20T16:08:19.151Z,17.65
2019-05-20T16:10:49.444Z,17.10
2019-05-20T16:13:19.941Z,19.52
2019-05-20T16:15:50.255Z,15.28
2019-05-20T16:18:20.487Z,18.07
2019-05-20T16:20:50.671Z,20.57
2019-05-20T16:23:21.020Z,19.20
2019-05-20T16:25:51.378Z,18.90
2019-05-20T16:28:21.697Z,17.82
2019-05-20T16:30:52.186Z,17.05
2019-05-20T16:33:22.514Z,19.45
2019-05-20T16:35:52.556Z,19.67
2019-05-20T16:38:23.091Z,18.32
2019-05-20T16:40:53.357Z,16.07
2019-05-20T16:43:23.554Z,17.42
2019-05-20T16:45:53.930Z,16.57
2019-05-20T16:48:24.432Z,18.15
2019-05-20T16:50:55.514Z,17.40
2019-05-20T16:53:25.754Z,16.30
2019-05-20T16:55:56.121Z,19.65
2019-05-20T16:58:26.554Z,16.77
2019-05-20T17:00:56.940Z,20.57
2019-05-20T17:03:27.276Z,18.75
2019-05-20T17:05:57.461Z,21.93
2019-05-20T17:08:27.955Z,18.60
2019-05-20T17:11:00.645Z,21.25
2019-05-20T17:13:30.837Z,17.87
2019-05-20T17:16:01.079Z,18.57
2019-05-20T17:18:31.281Z,20.25
2019-05-20T17:21:01.862Z,19.65
2019-05-20T17:23:33.364Z,19.67
2019-05-20T17:26:03.686Z,19.00
2019-05-20T17:28:35.671Z,18.10
2019-05-20T17:31:06.376Z,20.10
2019-05-20T17:33:36.659Z,22.42
2019-05-20T17:36:06.991Z,19.00
2019-05-20T17:38:37.234Z,24.15
2019-05-20T17:41:07.518Z,26.80
2019-05-20T17:43:37.979Z,22.30
2019-05-20T17:46:08.342Z,23.25
2019-05-20T17:48:38.727Z,23.85
2019-05-20T17:51:09.140Z,23.00
2019-05-20T17:53:39.346Z,26.95
2019-05-20T17:56:09.992Z,25.37
2019-05-20T17:58:40.219Z,25.88
2019-05-20T18:01:15.379Z,26.27
2019-05-20T18:03:42.473Z,26.80
2019-05-20T18:06:12.793Z,26.62
2019-05-20T18:08:44.537Z,27.73
2019-05-20T18:11:14.812Z,25.23
2019-05-20T18:13:45.102Z,27.35
2019-05-20T18:16:15.457Z,29.65
2019-05-20T18:18:45.623Z,27.27
2019-05-20T18:21:16.051Z,27.73
2019-05-20T18:23:46.335Z,29.32
2019-05-20T18:26:16.433Z,33.10
2019-05-20T18:28:46.580Z,29.72
2019-05-20T18:31:31.235Z,31.87
2019-05-20T18:33:49.048Z,30.10
2019-05-20T18:36:19.148Z,35.05
2019-05-20T18:38:49.832Z,34.78
2019-05-20T18:41:20.289Z,32.45
2019-05-20T18:43:50.413Z,37.00
2019-05-20T18:46:20.614Z,38.08
2019-05-20T18:48:51.005Z,39.92
2019-05-20T18:51:21.195Z,39.78
2019-05-20T18:53:51.530Z,38.90
2019-05-20T18:56:21.676Z,41.02
2019-05-20T18:58:52.237Z,44.03
2019-05-20T19:01:22.367Z,43.25
2019-05-20T19:03:52.544Z,43.13
2019-05-20T19:06:22.721Z,40.17
2019-05-20T19:08:53.050Z,40.05
2019-05-20T19:11:23.194Z,44.23
2019-05-20T19:13:53.616Z,45.23
2019-05-20T19:16:23.880Z,41.30
2019-05-20T19:18:54.271Z,40.40
2019-05-20T19:21:24.455Z,40.85
2019-05-20T19:23:54.669Z,44.38
2019-05-20T19:26:25.646Z,37.38
2019-05-20T19:28:55.614Z,41.37
2019-05-20T19:31:25.459Z,41.25
2019-05-20T19:33:55.287Z,41.80
2019-05-20T19:36:24.963Z,44.53
2019-05-20T19:38:54.856Z,49.90
2019-05-20T19:41:24.923Z,49.35
2019-05-20T19:43:54.912Z,46.68
2019-05-20T19:46:24.956Z,46.20
2019-05-20T19:48:54.910Z,49.00
2019-05-20T19:51:24.893Z,44.42
2019-05-20T19:53:54.877Z,45.50
2019-05-20T19:56:24.856Z,46.23
2019-05-20T19:58:54.711Z,47.13
2019-05-20T20:01:24.537Z,45.28
2019-05-20T20:03:54.143Z,46.55
2019-05-20T20:06:24.199Z,46.80
2019-05-20T20:08:53.939Z,52.78
2019-05-20T20:11:23.639Z,48.50
2019-05-20T20:13:53.195Z,48.63
2019-05-20T20:16:22.871Z,50.95
2019-05-20T20:18:52.559Z,50.67
2019-05-20T20:21:22.247Z,51.88
2019-05-20T20:23:52.080Z,52.75
2019-05-20T20:26:21.864Z,55.20
2019-05-20T20:28:51.666Z,54.25
2019-05-20T20:31:21.368Z,56.45
2019-05-20T20:33:51.250Z,52.27
2019-05-20T20:36:21.579Z,51.95
2019-05-20T20:38:51.334Z,52.80
2019-05-20T20:41:21.539Z,53.17
2019-05-20T20:43:51.796Z,54.45
2019-05-20T20:46:21.559Z,55.92
2019-05-20T20:48:51.379Z,53.63
2019-05-20T20:51:21.213Z,54.03
2019-05-20T20:53:51.052Z,51.15
2019-05-20T20:56:25.334Z,53.10
2019-05-20T20:58:52.211Z,53.52
2019-05-20T21:01:23.725Z,51.88
2019-05-20T21:03:53.411Z,51.13
2019-05-20T21:06:23.188Z,47.98
2019-05-20T21:08:52.922Z,48.55
2019-05-20T21:11:22.521Z,46.63
2019-05-20T21:13:52.523Z,40.92
2019-05-20T21:16:22.391Z,43.08
2019-05-20T21:18:52.271Z,42.78
2019-05-20T21:21:22.122Z,40.70
2019-05-20T21:23:52.177Z,42.98
2019-05-20T21:26:22.179Z,43.98
2019-05-20T21:28:51.948Z,45.75
2019-05-20T21:31:21.765Z,48.52
2019-05-20T21:33:51.682Z,52.88
2019-05-20T21:36:21.573Z,52.55
2019-05-20T21:38:51.538Z,58.52
2019-05-20T21:41:21.385Z,54.88
2019-05-20T21:43:51.382Z,50.00
2019-05-20T21:46:21.200Z,54.90
2019-05-20T21:48:51.275Z,54.88
2019-05-20T21:51:20.981Z,52.43
2019-05-20T21:53:50.730Z,50.55
2019-05-20T21:56:20.601Z,46.75
2019-05-20T21:58:50.351Z,52.08
2019-05-20T22:01:20.186Z,46.40
2019-05-20T22:03:49.890Z,49.65
2019-05-20T22:06:20.025Z,44.75
2019-05-20T22:08:49.717Z,44.15
2019-05-20T22:11:19.735Z,41.20
2019-05-20T22:13:50.125Z,45.12
2019-05-20T22:16:20.065Z,44.20
2019-05-20T22:18:49.654Z,41.55
2019-05-20T22:21:21.110Z,43.00
2019-05-20T22:23:55.409Z,41.50
2019-05-20T22:26:25.047Z,42.53
2019-05-20T22:28:54.696Z,40.78
2019-05-20T22:31:24.412Z,41.77
2019-05-20T22:33:54.425Z,39.80
2019-05-20T22:36:24.323Z,43.73
2019-05-20T22:38:54.114Z,38.73
2019-05-20T22:41:24.111Z,39.95
2019-05-20T22:43:53.806Z,43.92
2019-05-20T22:46:23.744Z,43.80
2019-05-20T22:48:53.567Z,41.70
2019-05-20T22:51:23.269Z,40.88
2019-05-20T22:53:54.829Z,45.00
2019-05-20T22:56:24.581Z,40.85
2019-05-20T22:58:54.401Z,41.80
2019-05-20T23:01:24.169Z,43.15
2019-05-20T23:03:56.337Z,40.17
2019-05-20T23:06:25.582Z,37.63
2019-05-20T23:08:55.205Z,42.83
2019-05-20T23:11:25.239Z,39.03
2019-05-20T23:13:55.138Z,38.45
2019-05-20T23:16:24.977Z,36.48
2019-05-20T23:18:54.833Z,32.63
2019-05-20T23:21:24.579Z,35.38
2019-05-20T23:23:54.379Z,41.75
2019-05-20T23:26:24.056Z,43.05
2019-05-20T23:28:53.713Z,41.45
2019-05-20T23:31:23.481Z,36.77
2019-05-20T23:33:53.210Z,38.60
2019-05-20T23:36:22.952Z,40.15
2019-05-20T23:38:52.674Z,35.35
2019-05-20T23:41:22.510Z,37.35
2019-05-20T23:43:52.396Z,38.65
2019-05-20T23:46:22.348Z,38.05
2019-05-20T23:48:52.190Z,38.08
2019-05-20T23:51:22.134Z,38.78
2019-05-20T23:53:52.131Z,33.48
2019-05-20T23:56:21.958Z,36.90
2019-05-20T23:58:51.901Z,35.70
